Time;durP1;ratioP1;P1;durP2;ratioP2;P2;SDS_P1;SDS_P2;PMS_P1;PMS_P2;Temp;Humidity;BMP_temperature;BMP_pressure;BME280_temperature;BME280_humidity;BME280_pressure;Samples;Min_cycle;Max_cycle;Signal;HPM_P1;HPM_P2
2023/06/21 00:00:28;;;;;;;13.93;8.70;;;;;;;18.83;100.00;98504.09;4971315;28;20320;-65
2023/06/21 00:02:54;;;;;;;10.93;9.37;;;;;;;18.80;100.00;98495.75;4971545;28;20232;-65
2023/06/21 00:05:23;;;;;;;9.97;8.50;;;;;;;18.74;100.00;98507.97;4969883;28;20225;-65
2023/06/21 00:07:52;;;;;;;14.87;9.27;;;;;;;18.77;100.00;98518.13;4974864;28;20263;-65
2023/06/21 00:10:25;;;;;;;13.93;8.90;;;;;;;18.73;100.00;98515.09;4969293;28;20289;-65
2023/06/21 00:12:51;;;;;;;12.10;9.30;;;;;;;18.78;100.00;98518.97;4977783;28;20243;-65
2023/06/21 00:15:24;;;;;;;19.30;8.40;;;;;;;18.74;100.00;98527.31;4974760;28;20240;-65
2023/06/21 00:17:51;;;;;;;13.17;8.07;;;;;;;18.68;100.00;98530.78;4973738;28;20235;-65
2023/06/21 00:20:23;;;;;;;12.30;8.27;;;;;;;18.71;100.00;98524.25;4973243;28;20235;-65
2023/06/21 00:22:55;;;;;;;12.67;7.87;;;;;;;18.72;100.00;98531.97;4973577;28;20243;-65
2023/06/21 00:25:25;;;;;;;8.63;7.73;;;;;;;18.75;100.00;98525.44;4973856;28;20235;-66
2023/06/21 00:27:51;;;;;;;10.20;8.50;;;;;;;18.69;100.00;98537.69;4973107;28;20235;-65
2023/06/21 00:30:24;;;;;;;10.40;8.00;;;;;;;18.69;100.00;98536.84;4970245;28;20723;-65
2023/06/21 00:32:50;;;;;;;12.30;7.40;;;;;;;18.66;100.00;98540.75;4968995;28;20244;-65
2023/06/21 00:35:21;;;;;;;12.50;8.70;;;;;;;18.78;100.00;98532.97;4972427;28;20236;-65
2023/06/21 00:37:47;;;;;;;12.20;8.50;;;;;;;18.72;100.00;98537.28;4984656;28;20749;-65
2023/06/21 00:40:14;;;;;;;14.17;8.90;;;;;;;18.69;100.00;98542.97;4971349;28;20235;-65
2023/06/21 00:42:42;;;;;;;12.20;8.50;;;;;;;18.70;100.00;98554.34;4973377;28;20239;-65
2023/06/21 00:45:15;;;;;;;13.60;8.90;;;;;;;18.64;100.00;98555.16;4972865;28;20232;-65
2023/06/21 00:47:42;;;;;;;11.80;8.63;;;;;;;18.58;100.00;98547.03;4974584;28;20702;-65
2023/06/21 00:50:09;;;;;;;12.80;8.70;;;;;;;18.54;100.00;98537.09;4974589;28;20233;-65
2023/06/21 00:52:37;;;;;;;12.77;8.60;;;;;;;18.57;100.00;98545.41;4973059;28;20240;-65
2023/06/21 00:55:05;;;;;;;15.10;8.40;;;;;;;18.54;100.00;98547.66;4970183;28;20287;-65
2023/06/21 00:57:33;;;;;;;13.27;8.77;;;;;;;18.53;100.00;98554.78;4972276;28;20233;-65
2023/06/21 01:00:01;;;;;;;14.90;8.30;;;;;;;18.50;100.00;98551.72;4972689;28;20250;-65
2023/06/21 01:02:28;;;;;;;9.97;8.03;;;;;;;18.43;100.00;98557.03;4977012;28;20243;-65
2023/06/21 01:04:57;;;;;;;8.97;7.90;;;;;;;18.42;100.00;98558.03;4984380;28;20232;-65
2023/06/21 01:07:45;;;;;;;13.23;7.77;;;;;;;18.44;100.00;98550.72;4973511;28;20231;-65
2023/06/21 01:10:25;;;;;;;11.27;7.87;;;;;;;18.44;100.00;98542.78;4969838;28;20249;-65
2023/06/21 01:13:04;;;;;;;12.57;7.63;;;;;;;18.42;100.00;98531.63;4972169;28;20241;-65
2023/06/21 01:15:40;;;;;;;10.13;8.50;;;;;;;18.36;100.00;98535.88;4974672;28;20323;-65
2023/06/21 01:18:10;;;;;;;10.57;7.77;;;;;;;18.39;100.00;98558.44;4974123;28;20778;-65
2023/06/21 01:20:38;;;;;;;9.33;7.73;;;;;;;18.42;100.00;98558.84;4973554;28;20236;-65
2023/06/21 01:23:22;;;;;;;12.70;8.23;;;;;;;18.38;100.00;98568.19;4971183;28;20279;-65
2023/06/21 01:26:06;;;;;;;11.13;7.93;;;;;;;18.39;100.00;98576.94;4974854;28;20259;-65
2023/06/21 01:28:42;;;;;;;15.37;8.27;;;;;;;18.38;100.00;98577.97;4972959;28;21044;-65
2023/06/21 01:31:15;;;;;;;10.80;8.17;;;;;;;18.36;100.00;98580.78;4972451;28;20339;-65
2023/06/21 01:33:42;;;;;;;11.90;8.53;;;;;;;18.38;100.00;98583.25;4976342;28;20707;-65
2023/06/21 01:36:10;;;;;;;11.33;7.83;;;;;;;18.34;100.00;98589.94;4976301;28;20239;-65
2023/06/21 01:38:37;;;;;;;10.33;7.77;;;;;;;18.25;100.00;98584.88;4976311;28;20236;-65
2023/06/21 01:41:03;;;;;;;10.23;8.33;;;;;;;18.31;100.00;98579.78;4972721;28;20236;-65
2023/06/21 01:43:31;;;;;;;13.40;7.77;;;;;;;18.29;100.00;98585.25;4973158;28;20299;-65
2023/06/21 01:46:01;;;;;;;9.57;7.87;;;;;;;18.27;100.00;98588.13;4974949;28;20315;-66
2023/06/21 01:48:33;;;;;;;12.67;7.47;;;;;;;18.25;100.00;98594.59;4971124;28;20253;-66
2023/06/21 01:51:03;;;;;;;11.43;7.37;;;;;;;18.25;100.00;98602.53;4971689;28;20755;-66
2023/06/21 01:53:37;;;;;;;12.07;7.27;;;;;;;18.26;100.00;98606.78;4972560;28;20627;-65
2023/06/21 01:56:09;;;;;;;11.87;7.90;;;;;;;18.20;100.00;98604.97;4970421;28;20264;-65
2023/06/21 01:58:35;;;;;;;11.67;7.93;;;;;;;18.13;100.00;98618.16;4988514;28;20328;-65
2023/06/21 02:01:04;;;;;;;11.00;7.20;;;;;;;18.22;100.00;98606.41;4971609;28;20286;-65
2023/06/21 02:03:33;;;;;;;10.23;7.43;;;;;;;18.17;100.00;98605.34;4958175;28;20251;-65
2023/06/21 02:06:03;;;;;;;10.07;7.77;;;;;;;18.15;100.00;98603.72;4974118;28;20238;-65
2023/06/21 02:08:32;;;;;;;9.07;7.40;;;;;;;18.15;100.00;98606.38;4973116;28;20247;-65
2023/06/21 02:11:00;;;;;;;10.03;7.77;;;;;;;18.14;100.00;98617.94;4973227;28;20233;-65
2023/06/21 02:13:27;;;;;;;10.20;7.80;;;;;;;18.12;100.00;98614.69;4973493;28;20236;-65
2023/06/21 02:15:54;;;;;;;14.00;8.20;;;;;;;18.12;100.00;98604.13;4972122;28;20235;-65
2023/06/21 02:18:22;;;;;;;10.43;7.33;;;;;;;18.09;100.00;98616.94;4980838;28;20230;-65
2023/06/21 02:20:50;;;;;;;10.03;7.60;;;;;;;18.03;100.00;98610.59;4977602;28;20238;-65
2023/06/21 02:23:16;;;;;;;10.03;7.17;;;;;;;18.03;100.00;98615.91;4970677;28;20242;-65
2023/06/21 02:25:43;;;;;;;11.87;7.20;;;;;;;18.04;100.00;98614.09;4971768;28;20237;-65
2023/06/21 02:28:11;;;;;;;11.70;7.40;;;;;;;18.03;100.00;98620.38;4971605;28;20235;-66
2023/06/21 02:30:37;;;;;;;15.23;7.67;;;;;;;18.09;100.00;98627.50;4984513;28;20235;-66
2023/06/21 02:33:04;;;;;;;9.07;6.67;;;;;;;18.17;100.00;98640.53;4971502;28;20259;-65
2023/06/21 02:35:31;;;;;;;12.00;7.30;;;;;;;18.18;100.00;98642.16;4974995;28;20239;-65
2023/06/21 02:37:58;;;;;;;9.83;7.73;;;;;;;18.26;100.00;98649.06;4989872;28;20586;-65
2023/06/21 02:40:25;;;;;;;12.23;7.17;;;;;;;18.35;100.00;98669.00;4974422;28;20245;-65
2023/06/21 02:42:52;;;;;;;17.13;7.70;;;;;;;18.45;100.00;98689.78;4972743;28;20236;-65
2023/06/21 02:45:23;;;;;;;13.37;6.73;;;;;;;18.67;97.88;98745.94;4979723;28;20236;-65
2023/06/21 02:47:50;;;;;;;8.23;6.50;;;;;;;19.03;94.36;98865.66;4974412;28;20290;-66
2023/06/21 02:50:18;;;;;;;17.30;7.33;;;;;;;19.72;92.83;98907.88;4971969;28;20291;-65
2023/06/21 02:52:45;;;;;;;17.63;8.57;;;;;;;19.75;100.00;98865.91;4974794;28;20278;-66
2023/06/21 02:55:13;;;;;;;17.27;8.57;;;;;;;19.21;100.00;98837.81;4964732;28;20234;-66
2023/06/21 02:57:39;;;;;;;11.43;8.90;;;;;;;18.82;100.00;98814.50;4971085;28;20279;-66
2023/06/21 03:00:17;;;;;;;13.37;9.20;;;;;;;18.62;100.00;98810.97;4969562;28;20232;-66
2023/06/21 03:02:44;;;;;;;14.90;9.37;;;;;;;18.48;100.00;98796.91;4974954;28;20236;-66
2023/06/21 03:05:11;;;;;;;12.40;8.20;;;;;;;18.33;100.00;98774.09;4957339;28;20706;-66
2023/06/21 03:07:43;;;;;;;12.33;7.30;;;;;;;18.20;100.00;98742.34;4989910;28;20302;-67
2023/06/21 03:10:13;;;;;;;11.07;6.50;;;;;;;18.09;100.00;98723.41;4974387;28;20290;-67
2023/06/21 03:12:40;;;;;;;10.33;5.60;;;;;;;18.02;100.00;98700.63;4973843;28;20233;-67
2023/06/21 03:15:07;;;;;;;7.50;5.07;;;;;;;17.94;100.00;98694.47;4969606;28;20224;-67
2023/06/21 03:17:35;;;;;;;10.40;4.83;;;;;;;17.86;100.00;98686.72;4977570;28;20236;-67
2023/06/21 03:20:02;;;;;;;14.40;4.87;;;;;;;17.84;100.00;98689.56;4971446;28;20232;-67
2023/06/21 03:22:29;;;;;;;13.63;4.10;;;;;;;17.80;100.00;98688.31;4972716;28;20231;-67
2023/06/21 03:24:56;;;;;;;6.80;3.70;;;;;;;17.82;100.00;98698.69;4974837;28;20243;-67
2023/06/21 03:27:25;;;;;;;8.97;4.90;;;;;;;17.85;100.00;98690.38;4966236;28;20313;-67
2023/06/21 03:29:52;;;;;;;10.00;3.90;;;;;;;17.82;100.00;98672.28;4978753;28;20312;-67
2023/06/21 03:32:19;;;;;;;9.00;3.57;;;;;;;17.76;100.00;98681.81;5162404;23;20235;-67
2023/06/21 03:34:46;;;;;;;6.37;3.87;;;;;;;17.81;100.00;98700.53;4973533;28;20301;-67
2023/06/21 03:37:13;;;;;;;11.60;5.23;;;;;;;17.87;100.00;98692.81;4953446;28;20243;-67
2023/06/21 03:39:41;;;;;;;9.03;4.30;;;;;;;17.85;100.00;98707.03;4955373;28;20223;-67
2023/06/21 03:42:10;;;;;;;10.33;4.83;;;;;;;17.91;100.00;98713.34;4952711;28;20314;-67
2023/06/21 03:44:39;;;;;;;7.33;3.60;;;;;;;17.91;100.00;98704.63;4956023;28;20247;-67
2023/06/21 03:47:06;;;;;;;8.70;4.33;;;;;;;17.89;100.00;98704.00;4957372;28;20224;-67
2023/06/21 03:49:33;;;;;;;7.93;3.80;;;;;;;17.85;100.00;98698.28;4955813;28;20236;-67
2023/06/21 03:52:00;;;;;;;6.07;3.87;;;;;;;17.92;100.00;98703.59;4952488;28;20230;-67
2023/06/21 03:54:27;;;;;;;8.37;2.87;;;;;;;17.83;100.00;98702.94;4955133;28;20239;-67
2023/06/21 03:56:53;;;;;;;9.63;2.97;;;;;;;17.77;100.00;98686.06;4956291;28;20757;-67
2023/06/21 03:59:20;;;;;;;6.60;2.70;;;;;;;17.76;100.00;98707.38;4943135;28;20640;-67
2023/06/21 04:01:48;;;;;;;10.13;3.97;;;;;;;17.78;100.00;98702.72;4955828;28;20287;-67
2023/06/21 04:04:15;;;;;;;7.83;3.00;;;;;;;17.78;100.00;98710.63;4948631;28;20243;-67
2023/06/21 04:06:41;;;;;;;8.77;3.57;;;;;;;17.81;100.00;98720.81;4956529;28;20628;-67
2023/06/21 04:09:08;;;;;;;8.07;3.20;;;;;;;17.84;100.00;98715.97;4955799;28;20240;-67
2023/06/21 04:11:35;;;;;;;8.30;3.00;;;;;;;17.88;100.00;98723.50;4976463;28;20239;-67
2023/06/21 04:14:01;;;;;;;10.10;2.80;;;;;;;17.82;100.00;98723.28;4957055;28;20228;-67
2023/06/21 04:16:28;;;;;;;12.17;3.30;;;;;;;17.83;100.00;98724.06;4980267;28;20241;-66
2023/06/21 04:18:56;;;;;;;5.10;3.33;;;;;;;17.77;100.00;98722.22;4959450;28;20304;-66
2023/06/21 04:21:24;;;;;;;6.43;3.20;;;;;;;17.81;100.00;98718.16;4974386;28;20234;-66
2023/06/21 04:23:50;;;;;;;7.13;2.97;;;;;;;17.80;100.00;98720.00;4956333;28;20243;-66
2023/06/21 04:26:17;;;;;;;8.23;3.30;;;;;;;17.85;100.00;98719.41;4955979;28;20243;-66
2023/06/21 04:28:48;;;;;;;7.80;2.80;;;;;;;17.83;100.00;98730.19;4957718;28;20263;-66
2023/06/21 04:31:14;;;;;;;6.47;3.03;;;;;;;17.89;100.00;98743.63;4973548;28;20297;-66
2023/06/21 04:33:41;;;;;;;9.43;3.67;;;;;;;17.90;100.00;98753.97;4974730;28;20240;-67
2023/06/21 04:36:09;;;;;;;8.80;2.93;;;;;;;17.88;100.00;98744.63;4971060;28;20635;-67
2023/06/21 04:38:37;;;;;;;4.80;3.43;;;;;;;17.88;100.00;98739.34;4977422;28;20285;-67
2023/06/21 04:41:03;;;;;;;7.27;3.10;;;;;;;17.90;100.00;98763.72;4974844;28;20661;-67
2023/06/21 04:43:30;;;;;;;4.93;3.10;;;;;;;17.91;100.00;98762.72;4975937;28;20235;-67
2023/06/21 04:45:58;;;;;;;5.77;2.77;;;;;;;17.95;100.00;98771.88;4979471;28;20319;-67
2023/06/21 04:48:24;;;;;;;6.47;3.23;;;;;;;17.91;100.00;98760.88;4976803;28;21046;-67
2023/06/21 04:50:51;;;;;;;7.33;3.37;;;;;;;17.96;100.00;98768.22;4974566;28;20658;-67
2023/06/21 04:53:19;;;;;;;8.43;3.53;;;;;;;17.98;100.00;98782.84;4971683;28;20234;-67
2023/06/21 04:55:45;;;;;;;6.57;3.37;;;;;;;17.96;100.00;98731.25;4974000;28;20275;-67
2023/06/21 04:58:13;;;;;;;7.33;3.20;;;;;;;17.96;100.00;98742.63;4972970;28;20241;-67
2023/06/21 05:00:39;;;;;;;8.37;3.20;;;;;;;17.96;100.00;98731.25;4973697;28;20353;-67
2023/06/21 05:03:06;;;;;;;4.67;3.37;;;;;;;18.07;100.00;98677.06;4973129;28;20824;-67
2023/06/21 05:05:32;;;;;;;5.43;3.33;;;;;;;18.00;100.00;98674.44;4957613;28;20291;-67
2023/06/21 05:07:59;;;;;;;5.33;3.37;;;;;;;18.00;100.00;98703.47;4975850;28;20716;-67
2023/06/21 05:10:27;;;;;;;7.10;3.27;;;;;;;18.13;100.00;98711.41;4973979;28;20620;-67
2023/06/21 05:12:54;;;;;;;7.83;2.90;;;;;;;18.17;100.00;98729.53;4973549;28;20243;-66
2023/06/21 05:15:23;;;;;;;5.17;2.80;;;;;;;18.21;100.00;98722.81;4972962;28;20225;-66
2023/06/21 05:17:50;;;;;;;6.23;3.30;;;;;;;18.29;100.00;98722.66;4958232;28;20243;-66
2023/06/21 05:20:41;;;;;;;3.87;2.70;;;;;;;18.41;100.00;98728.19;4972337;28;20799;-66
2023/06/21 05:23:08;;;;;;;8.23;2.57;;;;;;;18.54;100.00;98736.16;4973364;28;20236;-66
2023/06/21 05:25:36;;;;;;;3.60;2.40;;;;;;;18.74;100.00;98744.13;4976851;28;20301;-66
2023/06/21 05:28:02;;;;;;;5.73;2.50;;;;;;;18.88;100.00;98744.13;4975313;28;20617;-66
2023/06/21 05:30:29;;;;;;;3.70;1.90;;;;;;;19.10;100.00;98743.94;4975457;28;20234;-66
2023/06/21 05:32:56;;;;;;;4.07;2.00;;;;;;;19.29;100.00;98751.06;4977340;28;20242;-66
2023/06/21 05:35:24;;;;;;;4.27;2.10;;;;;;;19.40;100.00;98759.41;4974184;28;20338;-66
2023/06/21 05:37:52;;;;;;;6.87;2.77;;;;;;;19.43;100.00;98762.47;4973735;28;20234;-66
2023/06/21 05:40:24;;;;;;;4.53;2.43;;;;;;;19.54;100.00;98760.22;4971572;28;20231;-66
2023/06/21 05:42:51;;;;;;;5.53;2.30;;;;;;;19.54;100.00;98776.13;4974162;28;20237;-67
2023/06/21 05:45:23;;;;;;;4.20;2.50;;;;;;;19.57;100.00;98776.50;4971700;28;20238;-67
2023/06/21 05:47:50;;;;;;;2.90;2.13;;;;;;;19.49;100.00;98771.44;4973564;28;20319;-67
2023/06/21 05:50:17;;;;;;;3.10;2.00;;;;;;;19.43;100.00;98778.38;4973809;28;20307;-67
2023/06/21 05:52:44;;;;;;;4.97;3.10;;;;;;;19.33;100.00;98768.19;4974731;28;20480;-67
2023/06/21 05:55:11;;;;;;;7.30;2.27;;;;;;;19.26;100.00;98785.09;4971984;28;20231;-67
2023/06/21 05:57:37;;;;;;;4.57;2.40;;;;;;;19.18;100.00;98783.44;4975712;28;20233;-67
2023/06/21 06:00:09;;;;;;;4.00;2.30;;;;;;;19.23;100.00;98780.19;4971323;28;20233;-67
2023/06/21 06:02:44;;;;;;;4.40;2.10;;;;;;;19.29;100.00;98779.38;4975253;28;20277;-67
2023/06/21 06:05:11;;;;;;;3.23;2.20;;;;;;;19.36;100.00;98800.53;4973585;28;20580;-67
2023/06/21 06:07:38;;;;;;;4.40;2.20;;;;;;;19.38;100.00;98802.00;4976360;28;20227;-67
2023/06/21 06:10:05;;;;;;;3.70;2.30;;;;;;;19.52;100.00;98810.72;4954231;28;20238;-67
2023/06/21 06:12:33;;;;;;;4.70;2.33;;;;;;;19.71;100.00;98824.16;4971869;28;20231;-67
2023/06/21 06:15:00;;;;;;;7.10;2.47;;;;;;;19.89;100.00;98816.41;4968700;28;20718;-67
2023/06/21 06:17:28;;;;;;;5.63;2.20;;;;;;;20.06;100.00;98818.63;4974032;28;20228;-67
2023/06/21 06:19:54;;;;;;;4.93;2.33;;;;;;;20.30;100.00;98819.78;4973980;28;20315;-67
2023/06/21 06:22:21;;;;;;;4.33;2.00;;;;;;;20.40;100.00;98821.16;4957375;28;20260;-67
2023/06/21 06:24:48;;;;;;;4.73;2.40;;;;;;;20.52;100.00;98818.66;4974983;28;20237;-67
2023/06/21 06:27:15;;;;;;;4.27;2.30;;;;;;;20.71;100.00;98820.41;4972208;28;20348;-67
2023/06/21 06:29:41;;;;;;;3.47;2.20;;;;;;;20.95;100.00;98823.34;4967410;28;20242;-67
2023/06/21 06:32:08;;;;;;;2.87;1.93;;;;;;;21.07;100.00;98826.13;4974008;28;20245;-67
2023/06/21 06:34:36;;;;;;;4.57;2.00;;;;;;;21.09;100.00;98816.13;4974509;28;20593;-67
2023/06/21 06:37:03;;;;;;;5.90;2.40;;;;;;;20.98;100.00;98811.50;4971602;28;20239;-67
2023/06/21 06:39:29;;;;;;;4.17;2.20;;;;;;;21.09;100.00;98821.41;4974527;28;20572;-67
2023/06/21 06:41:56;;;;;;;3.57;2.37;;;;;;;21.10;100.00;98825.69;4974916;28;20375;-67
2023/06/21 06:44:22;;;;;;;5.87;2.43;;;;;;;21.19;100.00;98843.00;4972402;28;20234;-67
2023/06/21 06:46:49;;;;;;;3.37;1.80;;;;;;;21.50;100.00;98849.31;4976883;28;20234;-67
2023/06/21 06:49:16;;;;;;;6.13;2.20;;;;;;;21.68;100.00;98847.75;4956705;28;20240;-67
2023/06/21 06:51:45;;;;;;;4.70;2.17;;;;;;;21.88;100.00;98847.56;4973495;28;20707;-67
2023/06/21 06:54:12;;;;;;;5.17;2.13;;;;;;;22.14;100.00;98852.81;4969152;28;20235;-67
2023/06/21 06:56:38;;;;;;;4.90;2.30;;;;;;;22.16;95.08;98846.28;4974887;28;20225;-67
2023/06/21 06:59:05;;;;;;;4.93;2.30;;;;;;;22.38;95.90;98851.13;4973604;28;20244;-67
2023/06/21 07:01:32;;;;;;;2.77;2.10;;;;;;;22.58;99.10;98848.25;4976287;28;20240;-67
2023/06/21 07:04:00;;;;;;;3.33;2.23;;;;;;;22.69;100.00;98841.38;4974377;28;20735;-67
2023/06/21 07:06:26;;;;;;;3.87;2.43;;;;;;;22.78;96.31;98828.56;4971450;28;20230;-67
2023/06/21 07:08:54;;;;;;;5.03;2.53;;;;;;;22.78;97.80;98808.09;4978199;28;20235;-67
2023/06/21 07:11:21;;;;;;;5.83;2.40;;;;;;;22.92;95.33;98813.22;4953743;28;20245;-68
2023/06/21 07:13:47;;;;;;;4.50;2.50;;;;;;;22.85;99.97;98823.94;4975877;28;20229;-68
2023/06/21 07:16:15;;;;;;;6.27;2.83;;;;;;;23.20;100.00;98825.09;4967829;28;20228;-68
2023/06/21 07:18:41;;;;;;;3.27;2.50;;;;;;;23.47;94.83;98849.47;4976883;28;20622;-68
2023/06/21 07:21:08;;;;;;;4.17;2.40;;;;;;;23.72;87.47;98859.91;4972751;28;20246;-68
2023/06/21 07:23:34;;;;;;;3.97;2.47;;;;;;;23.97;80.69;98866.03;4975340;28;20296;-68
2023/06/21 07:26:02;;;;;;;3.20;2.60;;;;;;;23.83;78.99;98866.31;4970734;28;20229;-68
2023/06/21 07:28:29;;;;;;;5.10;2.80;;;;;;;23.82;78.60;98869.19;4970364;28;20639;-67
2023/06/21 07:30:56;;;;;;;4.07;2.33;;;;;;;23.68;79.23;98868.63;4971263;28;20717;-67
2023/06/21 07:33:22;;;;;;;5.70;2.57;;;;;;;23.99;75.14;98870.16;4960392;28;20709;-67
2023/06/21 07:35:49;;;;;;;4.60;2.90;;;;;;;23.99;79.37;98886.13;4972466;28;20233;-67
2023/06/21 07:38:15;;;;;;;3.87;2.73;;;;;;;24.02;80.51;98890.19;4974104;28;20226;-67
2023/06/21 07:40:42;;;;;;;4.50;2.50;;;;;;;23.91;77.97;98890.97;4954904;28;20226;-67
2023/06/21 07:43:10;;;;;;;3.43;2.80;;;;;;;23.77;77.91;98891.22;4967491;28;20231;-67
2023/06/21 07:45:37;;;;;;;4.57;2.30;;;;;;;23.60;79.05;98904.38;4971137;28;20239;-67
2023/06/21 07:48:03;;;;;;;4.87;2.53;;;;;;;23.18;74.91;98909.72;4951058;28;20241;-67
2023/06/21 07:50:30;;;;;;;4.00;2.67;;;;;;;22.66;79.52;98903.84;4973279;28;20251;-67
2023/06/21 07:52:57;;;;;;;4.70;2.80;;;;;;;22.51;81.85;98903.38;4955262;28;20248;-67
2023/06/21 07:55:23;;;;;;;6.17;2.87;;;;;;;21.99;82.65;98907.16;4969567;28;20591;-67
2023/06/21 07:57:50;;;;;;;7.90;2.93;;;;;;;21.92;85.53;98906.41;4971927;28;20239;-67
2023/06/21 08:00:22;;;;;;;3.23;2.50;;;;;;;21.74;86.38;98918.59;4963680;28;20742;-67
2023/06/21 08:02:51;;;;;;;5.67;2.67;;;;;;;21.88;85.17;98932.59;4971304;28;20240;-67
2023/06/21 08:05:23;;;;;;;5.83;2.80;;;;;;;21.91;85.79;98936.66;4969845;28;20237;-67
2023/06/21 08:07:50;;;;;;;6.47;2.70;;;;;;;21.79;84.44;98933.91;4975218;28;20300;-67
2023/06/21 08:10:23;;;;;;;6.33;3.00;;;;;;;22.06;85.67;98934.47;4970331;28;20231;-67
2023/06/21 08:12:50;;;;;;;5.27;2.43;;;;;;;22.18;86.18;98934.59;4970006;28;20291;-67
2023/06/21 08:15:25;;;;;;;4.53;3.23;;;;;;;22.42;86.66;98919.63;4954046;28;20733;-67
2023/06/21 08:17:52;;;;;;;4.87;2.60;;;;;;;22.35;81.44;98902.91;4976479;28;20707;-67
2023/06/21 08:20:23;;;;;;;4.53;3.10;;;;;;;22.48;82.97;98912.63;4970335;28;20236;-67
2023/06/21 08:22:50;;;;;;;4.93;3.27;;;;;;;22.53;82.62;98912.75;4973533;28;20247;-67
2023/06/21 08:25:23;;;;;;;4.40;3.03;;;;;;;22.55;82.91;98884.09;4969931;28;20237;-67
2023/06/21 08:27:50;;;;;;;4.80;3.17;;;;;;;22.67;85.10;98876.19;4974461;28;20242;-67
2023/06/21 08:30:16;;;;;;;7.67;3.30;;;;;;;22.72;86.22;98858.75;4971304;28;20232;-66
2023/06/21 08:32:44;;;;;;;5.13;3.03;;;;;;;22.68;85.15;98856.53;4971136;28;20736;-67
2023/06/21 08:35:11;;;;;;;7.37;3.67;;;;;;;22.51;85.33;98839.56;4967881;28;20235;-67
2023/06/21 08:37:40;;;;;;;6.43;3.47;;;;;;;22.52;87.17;98825.22;4969406;28;20235;-67
2023/06/21 08:40:09;;;;;;;5.27;3.17;;;;;;;22.44;91.04;98810.38;4969967;28;20802;-67
2023/06/21 08:42:35;;;;;;;4.83;2.97;;;;;;;22.44;94.21;98810.38;4974479;28;20226;-68
2023/06/21 08:45:03;;;;;;;4.47;3.37;;;;;;;22.34;94.30;98792.25;4970016;28;20244;-67
2023/06/21 08:47:33;;;;;;;6.47;3.27;;;;;;;22.17;96.69;98784.09;4972558;28;20244;-67
2023/06/21 08:50:05;;;;;;;5.93;3.40;;;;;;;22.18;96.11;98772.41;4971962;28;20295;-67
2023/06/21 08:52:33;;;;;;;7.50;3.67;;;;;;;22.08;95.77;98780.09;4969281;28;20231;-67
2023/06/21 08:55:04;;;;;;;6.83;4.00;;;;;;;21.92;95.24;98790.28;4975062;28;20233;-67
2023/06/21 08:57:39;;;;;;;4.67;3.43;;;;;;;21.82;94.07;98795.31;4956072;28;20325;-67
2023/06/21 09:00:11;;;;;;;8.57;4.00;;;;;;;21.65;93.56;98784.44;4974676;28;20242;-67
2023/06/21 09:02:47;;;;;;;3.73;3.33;;;;;;;21.46;93.97;98792.34;4976121;28;20237;-67
2023/06/21 09:05:21;;;;;;;7.83;4.20;;;;;;;21.38;98.20;98800.59;4970481;28;20234;-67
2023/06/21 09:07:48;;;;;;;5.07;3.80;;;;;;;21.38;99.52;98806.69;4978881;28;20289;-67
2023/06/21 09:10:18;;;;;;;5.63;4.10;;;;;;;21.23;97.39;98822.13;4972179;28;20233;-66
2023/06/21 09:12:46;;;;;;;7.70;4.03;;;;;;;21.29;100.00;98839.06;4974391;28;20224;-66
2023/06/21 09:15:35;;;;;;;8.77;4.00;;;;;;;21.39;100.00;98863.28;4976401;28;20780;-66
2023/06/21 09:18:02;;;;;;;8.03;3.80;;;;;;;21.44;100.00;98883.88;4968969;28;20235;-66
2023/06/21 09:20:30;;;;;;;6.87;3.83;;;;;;;21.49;100.00;98897.31;4974342;28;20285;-66
2023/06/21 09:22:57;;;;;;;5.63;4.10;;;;;;;21.66;100.00;98902.97;4973733;28;20802;-66
2023/06/21 09:25:24;;;;;;;8.13;4.60;;;;;;;21.72;100.00;98902.09;4973027;28;20309;-66
2023/06/21 09:27:51;;;;;;;6.97;3.60;;;;;;;21.89;100.00;98901.50;4975116;28;20273;-66
2023/06/21 09:30:24;;;;;;;9.00;4.63;;;;;;;22.04;100.00;98903.84;4973308;28;20240;-66
2023/06/21 09:32:51;;;;;;;7.10;4.27;;;;;;;22.21;99.59;98910.22;4971163;28;20283;-66
2023/06/21 09:35:23;;;;;;;6.37;4.07;;;;;;;22.46;98.23;98906.69;4973179;28;20235;-66
2023/06/21 09:37:51;;;;;;;5.47;4.00;;;;;;;22.68;98.92;98904.41;4976878;28;20251;-66
2023/06/21 09:40:23;;;;;;;6.67;3.83;;;;;;;22.53;91.04;98893.34;4953581;28;20232;-66
2023/06/21 09:42:51;;;;;;;8.10;4.03;;;;;;;22.92;92.06;98898.38;4975701;28;20238;-66
2023/06/21 09:45:23;;;;;;;6.27;4.07;;;;;;;23.06;92.59;98914.97;4971055;28;20340;-66
2023/06/21 09:47:51;;;;;;;4.60;3.87;;;;;;;23.36;90.34;98914.19;4973876;28;20225;-66
2023/06/21 09:50:22;;;;;;;8.77;4.63;;;;;;;23.63;88.35;98930.56;4972132;28;20232;-66
2023/06/21 09:52:50;;;;;;;6.47;4.27;;;;;;;23.86;87.66;98931.66;4976388;28;20523;-66
2023/06/21 09:55:25;;;;;;;6.03;3.83;;;;;;;23.99;86.36;98946.63;4971419;28;20240;-66
2023/06/21 09:57:53;;;;;;;6.20;3.87;;;;;;;24.25;87.53;98949.88;4974186;28;20249;-67
2023/06/21 10:00:24;;;;;;;10.07;4.00;;;;;;;24.29;84.88;98957.22;4972799;28;20313;-66
2023/06/21 10:02:53;;;;;;;7.30;3.97;;;;;;;24.24;78.23;98948.25;4973226;28;20240;-66
2023/06/21 10:05:23;;;;;;;7.63;3.87;;;;;;;24.35;78.05;98949.31;4970262;28;20240;-66
2023/06/21 10:07:51;;;;;;;6.27;3.83;;;;;;;24.36;74.14;98959.75;4977625;28;20691;-66
2023/06/21 10:10:24;;;;;;;6.60;3.97;;;;;;;24.43;75.17;98959.59;4973219;28;20234;-67
2023/06/21 10:12:51;;;;;;;6.67;4.00;;;;;;;24.88;72.56;98964.31;4976327;28;20327;-67
2023/06/21 10:15:24;;;;;;;5.63;3.83;;;;;;;25.38;71.02;98970.06;4973553;28;20237;-67
2023/06/21 10:17:52;;;;;;;6.53;4.17;;;;;;;25.72;72.06;98959.41;4974566;28;20229;-67
2023/06/21 10:20:23;;;;;;;7.50;4.00;;;;;;;26.04;68.20;98974.09;4969802;28;20578;-67
2023/06/21 10:22:53;;;;;;;4.70;3.73;;;;;;;26.03;65.77;98972.47;4973203;28;20235;-67
2023/06/21 10:25:25;;;;;;;6.73;3.70;;;;;;;26.81;61.79;98971.69;4972862;28;20241;-67
2023/06/21 10:27:54;;;;;;;5.83;4.03;;;;;;;26.61;66.30;98969.56;4957256;28;20243;-67
2023/06/21 10:30:26;;;;;;;7.43;3.67;;;;;;;26.80;63.30;98973.56;4970033;28;20232;-67
2023/06/21 10:32:55;;;;;;;5.47;4.20;;;;;;;26.98;61.54;98968.16;4972421;28;20285;-67
2023/06/21 10:35:27;;;;;;;5.80;4.33;;;;;;;26.38;62.50;98963.38;4972145;28;20330;-67
2023/06/21 10:38:01;;;;;;;6.37;4.23;;;;;;;26.66;63.83;98975.78;4974175;28;20238;-67
2023/06/21 10:40:29;;;;;;;4.67;4.03;;;;;;;26.99;58.93;98975.13;4971499;28;20243;-67
2023/06/21 10:42:58;;;;;;;7.13;4.70;;;;;;;26.48;64.06;98981.44;4976018;28;20302;-67
2023/06/21 10:45:25;;;;;;;6.27;4.27;;;;;;;26.21;65.06;98977.59;4971615;28;20576;-67
2023/06/21 10:47:54;;;;;;;10.43;5.47;;;;;;;26.61;63.94;98978.38;4956415;28;20325;-67
2023/06/21 10:50:24;;;;;;;5.97;4.80;;;;;;;25.65;66.87;98977.47;4973828;28;20278;-67
2023/06/21 10:52:54;;;;;;;6.80;4.53;;;;;;;26.25;67.00;98966.41;4974120;28;20228;-67
2023/06/21 10:55:25;;;;;;;6.07;5.27;;;;;;;26.31;62.78;98973.44;4958812;28;20242;-67
2023/06/21 10:57:52;;;;;;;6.73;5.43;;;;;;;25.84;65.29;98962.03;4975995;28;20731;-67
2023/06/21 11:00:25;;;;;;;6.57;5.33;;;;;;;25.85;65.96;98968.19;4970557;28;20240;-67
2023/06/21 11:02:52;;;;;;;9.77;6.20;;;;;;;26.05;63.45;98968.50;4970996;28;20246;-67
2023/06/21 11:05:25;;;;;;;6.97;5.70;;;;;;;26.44;61.90;98973.09;4972554;28;20623;-67
2023/06/21 11:07:55;;;;;;;6.80;4.90;;;;;;;26.56;62.41;98964.94;4975448;28;20249;-67
2023/06/21 11:10:32;;;;;;;10.00;5.20;;;;;;;26.86;62.85;98960.25;4972000;28;20235;-67
2023/06/21 11:12:58;;;;;;;6.67;5.40;;;;;;;26.68;59.71;98957.59;4974418;28;20308;-67
2023/06/21 11:15:26;;;;;;;8.60;4.40;;;;;;;26.30;58.56;98955.75;4974918;28;21021;-67
2023/06/21 11:18:11;;;;;;;6.23;4.90;;;;;;;26.01;61.15;98963.88;4972923;28;20720;-67
2023/06/21 11:20:45;;;;;;;7.00;5.03;;;;;;;26.00;64.06;98962.25;4968803;28;20227;-67
2023/06/21 11:23:16;;;;;;;7.03;5.07;;;;;;;26.12;60.99;98962.19;4970924;28;20580;-67
2023/06/21 11:25:51;;;;;;;8.27;5.20;;;;;;;25.94;60.38;98946.16;4974529;28;20260;-67
2023/06/21 11:28:26;;;;;;;6.97;5.27;;;;;;;25.60;64.66;98961.34;4973654;28;20231;-67
2023/06/21 11:31:07;;;;;;;8.87;4.97;;;;;;;25.67;65.89;98959.34;4975318;28;20229;-67
2023/06/21 11:33:46;;;;;;;6.77;4.87;;;;;;;25.76;63.80;98952.53;4966068;28;20232;-67